Roza A — TCRB7 — position and weather

sailwx.info

Track history (hours):
 
Tides and Currents Weather Stations Pressure Air Temp Water Temp Dewpoint Dewpoint Depression Visibility Wind Speed Wind Dir Waves Ship Positions

Roza A

Last reported at 2014-Dec-19 20:33 UTC. Time now 2014-Dec-19 21:04 UTC.
Position N 40°44' E 029°11'.

Length 169 m; draft 6.4 m.

Type: Ship (hazmat cat A). MMSI: 271001057.

Date/timePositionNaut miles runAvg speedWind from/ knotsBaromVisibWave heightAir tempDewpointWater temp
2014-Dec-19 20:33N 40°44' E 029°11'0 0.4
2014-Dec-19 19:33N 40°44' E 029°11'0 0.3
2014-Dec-19 18:33N 40°44' E 029°10'7 6.9
2014-Dec-19 17:33N 40°43' E 029°01'1111.2
2014-Dec-19 16:32N 40°46' E 028°47'1111.5
2014-Dec-19 15:33N 40°56' E 028°41'1 0.1
2014-Dec-18 22:32N 40°57' E 028°41'8 7.8
2014-Dec-18 21:32N 40°56' E 028°51'2 0.9
2014-Dec-18 19:33N 40°57' E 028°53'0 0.0
2014-Dec-18 18:09N 40°57' E 028°53'0 0.1
2014-Dec-18 17:33N 40°57' E 028°53'0 0.1
2014-Dec-18 16:31N 40°57' E 028°53'0 0.0
2014-Dec-18 15:13N 40°57' E 028°53'0 0.0
2014-Dec-18 13:13N 40°57' E 028°53'0 0.0
2014-Dec-18 12:31N 40°57' E 028°53'0 0.0
2014-Dec-18 09:24N 40°57' E 028°53'5 5.4
2014-Dec-18 08:32N 40°52' E 028°52'9210.9
2014-Dec-18 00:06N 40°29' E 026°54'710.6
2014-Dec-17 23:24N 40°26' E 026°46'1011.2
2014-Dec-17 22:31N 40°19' E 026°37'1412.5
2014-Dec-17 21:25N 40°09' E 026°23'2411.4
2014-Dec-17 19:18N 39°56' E 025°57'811.0
2014-Dec-17 18:33N 39°53' E 025°47'1111.0
2014-Dec-17 17:33N 39°49' E 025°34'2210.8
2014-Dec-17 15:29N 39°45' E 025°06'1414.8
2014-Dec-17 14:33N 39°46' E 024°48'2114.5
2014-Dec-17 13:08N 39°49' E 024°21'814.1
2014-Dec-17 12:33N 39°50' E 024°11'1814.0
2014-Dec-17 11:16N 39°51' E 023°47'67 1.9
2014-Dec-15 23:13N 38°46' E 024°08'29 9.7
2014-Dec-15 20:16N 38°23' E 024°30'5110.9
2014-Dec-15 15:33N 37°35' E 024°06'1414.2
2014-Dec-15 14:33N 37°37' E 023°48'1414.0
2014-Dec-15 13:33N 37°48' E 023°38'9 8.9
2014-Dec-15 12:30N 37°57' E 023°36'0 0.0
2014-Dec-15 11:33N 37°57' E 023°36'0 0.0
2014-Dec-15 10:33N 37°57' E 023°36'0 0.0
2014-Dec-15 09:33N 37°57' E 023°36'0 0.0
2014-Dec-15 08:33N 37°57' E 023°36'0 0.0
2014-Dec-15 07:33N 37°57' E 023°36'0 0.0
2014-Dec-15 06:33N 37°57' E 023°36'2 1.7
2014-Dec-15 05:33N 37°56' E 023°36'1 1.5
2014-Dec-15 04:33N 37°54' E 023°36'4 3.9
2014-Dec-15 03:33N 37°51' E 023°39'9 9.0
2014-Dec-15 02:33N 37°43' E 023°44'1010.1
2014-Dec-15 01:33N 37°33' E 023°46'1210.8
2014-Dec-15 00:25N 37°22' E 023°40'2110.0
2014-Dec-14 22:21N 37°03' E 023°28'65 8.4
2014-Dec-14 14:33N 36°19' E 022°28'  
2014-Dec-11 00:05N 42°42' E 005°51'510.2
2014-Dec-10 23:33N 42°46' E 005°45'1010.0
2014-Dec-10 22:33N 42°51' E 005°34'1010.1
2014-Dec-10 21:32N 42°58' E 005°23'1010.6
2014-Dec-10 20:33N 43°04' E 005°11'1110.5
2014-Dec-10 19:34N 43°11' E 005°01'1111.2
2014-Dec-10 18:34N 43°22' E 004°57'5 5.2
2014-Dec-10 17:33N 43°24' E 004°51'0 0.0
2014-Dec-10 16:33N 43°24' E 004°51'0 0.0
2014-Dec-10 15:33N 43°24' E 004°51'0 0.0
2014-Dec-10 14:33N 43°24' E 004°51'0 0.0
2014-Dec-10 13:33N 43°24' E 004°51'0 0.0
2014-Dec-10 12:33N 43°24' E 004°51'0 0.0
2014-Dec-10 11:33N 43°24' E 004°51'0 0.0
2014-Dec-10 10:33N 43°24' E 004°51'3 3.0
2014-Dec-10 09:33N 43°24' E 004°55'8 7.8
2014-Dec-10 08:34N 43°17' E 005°00'7 6.6
2014-Dec-10 07:33N 43°10' E 004°58'1010.0
2014-Dec-10 06:34N 43°11' E 004°45'10 9.5
2014-Dec-10 05:33N 43°12' E 004°32'9 8.6
2014-Dec-10 04:33N 43°06' E 004°24'9 8.9
2014-Dec-10 03:33N 42°58' E 004°16'9 9.3
2014-Dec-10 02:33N 42°51' E 004°09'40 9.2
2014-Dec-09 22:16N 42°18' E 003°40'4 5.3
2014-Dec-09 21:29N 42°14' E 003°37'  
Track history (hours):
 
Tides and Currents Weather Stations Pressure Air Temp Water Temp Dewpoint Dewpoint Depression Visibility Wind Speed Wind Dir Waves Ship Positions

Roza A

Last reported at 2014-Dec-19 20:33 UTC. Time now 2014-Dec-19 21:04 UTC.
Position N 40°44' E 029°11'.

Length 169 m; draft 6.4 m.

Type: Ship (hazmat cat A). MMSI: 271001057.

Date/timePositionNaut miles runAvg speedWind from/ knotsBaromVisibWave heightAir tempDewpointWater temp
2014-Dec-19 20:33N 40°44' E 029°11'0 0.4
2014-Dec-19 19:33N 40°44' E 029°11'0 0.3
2014-Dec-19 18:33N 40°44' E 029°10'7 6.9
2014-Dec-19 17:33N 40°43' E 029°01'1111.2
2014-Dec-19 16:32N 40°46' E 028°47'1111.5
2014-Dec-19 15:33N 40°56' E 028°41'1 0.1
2014-Dec-18 22:32N 40°57' E 028°41'8 7.8
2014-Dec-18 21:32N 40°56' E 028°51'2 0.9
2014-Dec-18 19:33N 40°57' E 028°53'0 0.0
2014-Dec-18 18:09N 40°57' E 028°53'0 0.1
2014-Dec-18 17:33N 40°57' E 028°53'0 0.1
2014-Dec-18 16:31N 40°57' E 028°53'0 0.0
2014-Dec-18 15:13N 40°57' E 028°53'0 0.0
2014-Dec-18 13:13N 40°57' E 028°53'0 0.0
2014-Dec-18 12:31N 40°57' E 028°53'0 0.0
2014-Dec-18 09:24N 40°57' E 028°53'5 5.4
2014-Dec-18 08:32N 40°52' E 028°52'9210.9
2014-Dec-18 00:06N 40°29' E 026°54'710.6
2014-Dec-17 23:24N 40°26' E 026°46'1011.2
2014-Dec-17 22:31N 40°19' E 026°37'1412.5
2014-Dec-17 21:25N 40°09' E 026°23'2411.4
2014-Dec-17 19:18N 39°56' E 025°57'811.0
2014-Dec-17 18:33N 39°53' E 025°47'1111.0
2014-Dec-17 17:33N 39°49' E 025°34'2210.8
2014-Dec-17 15:29N 39°45' E 025°06'1414.8
2014-Dec-17 14:33N 39°46' E 024°48'2114.5
2014-Dec-17 13:08N 39°49' E 024°21'814.1
2014-Dec-17 12:33N 39°50' E 024°11'1814.0
2014-Dec-17 11:16N 39°51' E 023°47'67 1.9
2014-Dec-15 23:13N 38°46' E 024°08'29 9.7
2014-Dec-15 20:16N 38°23' E 024°30'5110.9
2014-Dec-15 15:33N 37°35' E 024°06'1414.2
2014-Dec-15 14:33N 37°37' E 023°48'1414.0
2014-Dec-15 13:33N 37°48' E 023°38'9 8.9
2014-Dec-15 12:30N 37°57' E 023°36'0 0.0
2014-Dec-15 11:33N 37°57' E 023°36'0 0.0
2014-Dec-15 10:33N 37°57' E 023°36'0 0.0
2014-Dec-15 09:33N 37°57' E 023°36'0 0.0
2014-Dec-15 08:33N 37°57' E 023°36'0 0.0
2014-Dec-15 07:33N 37°57' E 023°36'0 0.0
2014-Dec-15 06:33N 37°57' E 023°36'2 1.7
2014-Dec-15 05:33N 37°56' E 023°36'1 1.5
2014-Dec-15 04:33N 37°54' E 023°36'4 3.9
2014-Dec-15 03:33N 37°51' E 023°39'9 9.0
2014-Dec-15 02:33N 37°43' E 023°44'1010.1
2014-Dec-15 01:33N 37°33' E 023°46'1210.8
2014-Dec-15 00:25N 37°22' E 023°40'2110.0
2014-Dec-14 22:21N 37°03' E 023°28'65 8.4
2014-Dec-14 14:33N 36°19' E 022°28'  
2014-Dec-11 00:05N 42°42' E 005°51'510.2
2014-Dec-10 23:33N 42°46' E 005°45'1010.0
2014-Dec-10 22:33N 42°51' E 005°34'1010.1
2014-Dec-10 21:32N 42°58' E 005°23'1010.6
2014-Dec-10 20:33N 43°04' E 005°11'1110.5
2014-Dec-10 19:34N 43°11' E 005°01'1111.2
2014-Dec-10 18:34N 43°22' E 004°57'5 5.2
2014-Dec-10 17:33N 43°24' E 004°51'0 0.0
2014-Dec-10 16:33N 43°24' E 004°51'0 0.0
2014-Dec-10 15:33N 43°24' E 004°51'0 0.0
2014-Dec-10 14:33N 43°24' E 004°51'0 0.0
2014-Dec-10 13:33N 43°24' E 004°51'0 0.0
2014-Dec-10 12:33N 43°24' E 004°51'0 0.0
2014-Dec-10 11:33N 43°24' E 004°51'0 0.0
2014-Dec-10 10:33N 43°24' E 004°51'3 3.0
2014-Dec-10 09:33N 43°24' E 004°55'8 7.8
2014-Dec-10 08:34N 43°17' E 005°00'7 6.6
2014-Dec-10 07:33N 43°10' E 004°58'1010.0
2014-Dec-10 06:34N 43°11' E 004°45'10 9.5
2014-Dec-10 05:33N 43°12' E 004°32'9 8.6
2014-Dec-10 04:33N 43°06' E 004°24'9 8.9
2014-Dec-10 03:33N 42°58' E 004°16'9 9.3
2014-Dec-10 02:33N 42°51' E 004°09'40 9.2
2014-Dec-09 22:16N 42°18' E 003°40'4 5.3
2014-Dec-09 21:29N 42°14' E 003°37'  

Dump ship's entire track history